sensor_id;sensor_type;location;lat;lon;timestamp;temperature;humidity
22491;DHT22;11412;50.802;4.350;2023-05-07T00:01:45;16.40;99.90
22491;DHT22;11412;50.802;4.350;2023-05-07T00:04:11;16.40;99.90
22491;DHT22;11412;50.802;4.350;2023-05-07T00:06:37;16.40;99.90
22491;DHT22;11412;50.802;4.350;2023-05-07T00:09:02;16.40;99.90
22491;DHT22;11412;50.802;4.350;2023-05-07T00:11:29;16.30;99.90
22491;DHT22;11412;50.802;4.350;2023-05-07T00:13:55;16.50;99.90
22491;DHT22;11412;50.802;4.350;2023-05-07T00:16:21;16.40;99.90
22491;DHT22;11412;50.802;4.350;2023-05-07T00:18:47;16.50;99.90
22491;DHT22;11412;50.802;4.350;2023-05-07T00:21:12;16.60;99.90
22491;DHT22;11412;50.802;4.350;2023-05-07T00:23:38;16.60;99.90
22491;DHT22;11412;50.802;4.350;2023-05-07T00:26:04;16.60;99.90
22491;DHT22;11412;50.802;4.350;2023-05-07T00:28:30;16.70;99.90
22491;DHT22;11412;50.802;4.350;2023-05-07T00:30:56;16.60;99.90
22491;DHT22;11412;50.802;4.350;2023-05-07T00:33:21;16.60;99.90
22491;DHT22;11412;50.802;4.350;2023-05-07T00:35:48;16.60;99.90
22491;DHT22;11412;50.802;4.350;2023-05-07T00:38:14;16.50;99.90
22491;DHT22;11412;50.802;4.350;2023-05-07T00:40:40;16.60;99.90
22491;DHT22;11412;50.802;4.350;2023-05-07T00:43:06;16.70;99.90
22491;DHT22;11412;50.802;4.350;2023-05-07T00:45:33;16.70;99.90
22491;DHT22;11412;50.802;4.350;2023-05-07T00:48:00;16.70;99.90
22491;DHT22;11412;50.802;4.350;2023-05-07T00:50:30;16.70;99.90
22491;DHT22;11412;50.802;4.350;2023-05-07T00:52:56;16.70;99.90
22491;DHT22;11412;50.802;4.350;2023-05-07T00:55:23;16.60;99.90
22491;DHT22;11412;50.802;4.350;2023-05-07T00:57:49;16.50;99.90
22491;DHT22;11412;50.802;4.350;2023-05-07T01:00:15;16.50;99.90
22491;DHT22;11412;50.802;4.350;2023-05-07T01:02:42;16.50;99.90
22491;DHT22;11412;50.802;4.350;2023-05-07T01:05:10;16.50;99.90
22491;DHT22;11412;50.802;4.350;2023-05-07T01:07:38;16.40;99.90
22491;DHT22;11412;50.802;4.350;2023-05-07T01:10:06;16.50;99.90
22491;DHT22;11412;50.802;4.350;2023-05-07T01:12:34;16.50;99.90
22491;DHT22;11412;50.802;4.350;2023-05-07T01:15:01;16.40;99.90
22491;DHT22;11412;50.802;4.350;2023-05-07T01:17:27;16.30;99.90
22491;DHT22;11412;50.802;4.350;2023-05-07T01:19:53;16.20;99.90
22491;DHT22;11412;50.802;4.350;2023-05-07T01:22:35;16.10;99.90
22491;DHT22;11412;50.802;4.350;2023-05-07T01:25:05;16.10;99.90
22491;DHT22;11412;50.802;4.350;2023-05-07T01:27:31;16.10;99.90
22491;DHT22;11412;50.802;4.350;2023-05-07T01:29:59;16.00;99.90
22491;DHT22;11412;50.802;4.350;2023-05-07T01:34:57;15.90;99.90
22491;DHT22;11412;50.802;4.350;2023-05-07T01:37:25;15.80;99.90
22491;DHT22;11412;50.802;4.350;2023-05-07T01:39:51;15.70;99.90
22491;DHT22;11412;50.802;4.350;2023-05-07T01:42:17;15.70;99.90
22491;DHT22;11412;50.802;4.350;2023-05-07T01:44:43;15.70;99.90
22491;DHT22;11412;50.802;4.350;2023-05-07T01:47:09;15.70;99.90
22491;DHT22;11412;50.802;4.350;2023-05-07T01:49:35;15.60;99.90
22491;DHT22;11412;50.802;4.350;2023-05-07T01:52:01;15.60;99.90
22491;DHT22;11412;50.802;4.350;2023-05-07T01:54:27;15.60;99.90
22491;DHT22;11412;50.802;4.350;2023-05-07T01:56:56;15.60;99.90
22491;DHT22;11412;50.802;4.350;2023-05-07T01:59:21;15.50;99.90
22491;DHT22;11412;50.802;4.350;2023-05-07T02:01:47;15.50;99.90
22491;DHT22;11412;50.802;4.350;2023-05-07T02:04:13;15.40;99.90
22491;DHT22;11412;50.802;4.350;2023-05-07T02:06:38;15.40;99.90
22491;DHT22;11412;50.802;4.350;2023-05-07T02:09:04;15.30;99.90
22491;DHT22;11412;50.802;4.350;2023-05-07T02:11:30;15.30;99.90
22491;DHT22;11412;50.802;4.350;2023-05-07T02:13:56;15.20;99.90
22491;DHT22;11412;50.802;4.350;2023-05-07T02:16:22;15.20;99.90
22491;DHT22;11412;50.802;4.350;2023-05-07T02:18:48;15.10;99.90
22491;DHT22;11412;50.802;4.350;2023-05-07T02:21:14;15.10;99.90
22491;DHT22;11412;50.802;4.350;2023-05-07T02:23:40;15.00;99.90
22491;DHT22;11412;50.802;4.350;2023-05-07T02:26:06;15.00;99.90
22491;DHT22;11412;50.802;4.350;2023-05-07T02:28:31;14.90;99.90
22491;DHT22;11412;50.802;4.350;2023-05-07T02:30:57;14.80;99.90
22491;DHT22;11412;50.802;4.350;2023-05-07T02:33:25;14.80;99.90
22491;DHT22;11412;50.802;4.350;2023-05-07T02:35:50;14.80;99.90
22491;DHT22;11412;50.802;4.350;2023-05-07T02:38:17;14.70;99.90
22491;DHT22;11412;50.802;4.350;2023-05-07T02:40:43;14.70;99.90
22491;DHT22;11412;50.802;4.350;2023-05-07T02:43:09;14.70;99.90
22491;DHT22;11412;50.802;4.350;2023-05-07T02:45:35;14.70;99.90
22491;DHT22;11412;50.802;4.350;2023-05-07T02:48:03;14.70;99.90
22491;DHT22;11412;50.802;4.350;2023-05-07T02:50:29;14.60;99.90
22491;DHT22;11412;50.802;4.350;2023-05-07T02:52:55;14.70;99.90
22491;DHT22;11412;50.802;4.350;2023-05-07T02:55:21;14.60;99.90
22491;DHT22;11412;50.802;4.350;2023-05-07T02:57:47;14.80;99.90
22491;DHT22;11412;50.802;4.350;2023-05-07T03:00:17;14.70;99.90
22491;DHT22;11412;50.802;4.350;2023-05-07T03:02:44;14.70;99.90
22491;DHT22;11412;50.802;4.350;2023-05-07T03:05:10;14.70;99.90
22491;DHT22;11412;50.802;4.350;2023-05-07T03:07:37;14.70;99.90
22491;DHT22;11412;50.802;4.350;2023-05-07T03:10:04;14.70;99.90
22491;DHT22;11412;50.802;4.350;2023-05-07T03:12:30;14.70;99.90
22491;DHT22;11412;50.802;4.350;2023-05-07T03:14:56;14.60;99.90
22491;DHT22;11412;50.802;4.350;2023-05-07T03:17:22;14.60;99.90
22491;DHT22;11412;50.802;4.350;2023-05-07T03:19:48;14.60;99.90
22491;DHT22;11412;50.802;4.350;2023-05-07T03:22:14;14.70;99.90
22491;DHT22;11412;50.802;4.350;2023-05-07T03:24:40;14.70;99.90
22491;DHT22;11412;50.802;4.350;2023-05-07T03:27:05;14.70;99.90
22491;DHT22;11412;50.802;4.350;2023-05-07T03:29:31;14.80;99.90
22491;DHT22;11412;50.802;4.350;2023-05-07T03:31:57;14.80;99.90
22491;DHT22;11412;50.802;4.350;2023-05-07T03:34:23;14.90;99.90
22491;DHT22;11412;50.802;4.350;2023-05-07T03:36:49;15.00;99.90
22491;DHT22;11412;50.802;4.350;2023-05-07T03:39:15;15.00;99.90
22491;DHT22;11412;50.802;4.350;2023-05-07T03:41:41;15.00;99.90
22491;DHT22;11412;50.802;4.350;2023-05-07T03:44:06;15.00;99.90
22491;DHT22;11412;50.802;4.350;2023-05-07T03:46:33;15.00;99.90
22491;DHT22;11412;50.802;4.350;2023-05-07T03:48:59;15.00;99.90
22491;DHT22;11412;50.802;4.350;2023-05-07T03:51:25;15.00;99.90
22491;DHT22;11412;50.802;4.350;2023-05-07T03:53:51;15.00;99.90
22491;DHT22;11412;50.802;4.350;2023-05-07T03:56:19;15.00;99.90
22491;DHT22;11412;50.802;4.350;2023-05-07T03:58:45;15.00;99.90
22491;DHT22;11412;50.802;4.350;2023-05-07T04:01:11;15.00;99.90
22491;DHT22;11412;50.802;4.350;2023-05-07T04:03:37;15.10;99.90
22491;DHT22;11412;50.802;4.350;2023-05-07T04:06:03;15.10;99.90
22491;DHT22;11412;50.802;4.350;2023-05-07T04:08:29;15.00;99.90
22491;DHT22;11412;50.802;4.350;2023-05-07T04:10:55;15.00;99.90
22491;DHT22;11412;50.802;4.350;2023-05-07T04:13:21;15.10;99.90
22491;DHT22;11412;50.802;4.350;2023-05-07T04:15:47;15.10;99.90
22491;DHT22;11412;50.802;4.350;2023-05-07T04:18:14;15.00;99.90
22491;DHT22;11412;50.802;4.350;2023-05-07T04:20:41;15.10;99.90
22491;DHT22;11412;50.802;4.350;2023-05-07T04:23:07;15.20;99.90
22491;DHT22;11412;50.802;4.350;2023-05-07T04:25:33;15.20;99.90
22491;DHT22;11412;50.802;4.350;2023-05-07T04:27:59;15.20;99.90
22491;DHT22;11412;50.802;4.350;2023-05-07T04:30:25;15.20;99.90
22491;DHT22;11412;50.802;4.350;2023-05-07T04:32:50;15.20;99.90
22491;DHT22;11412;50.802;4.350;2023-05-07T04:35:16;15.20;99.90
22491;DHT22;11412;50.802;4.350;2023-05-07T04:37:42;15.20;99.90
22491;DHT22;11412;50.802;4.350;2023-05-07T04:40:08;15.20;99.90
22491;DHT22;11412;50.802;4.350;2023-05-07T04:42:35;15.20;99.90
22491;DHT22;11412;50.802;4.350;2023-05-07T04:45:01;15.30;99.90
22491;DHT22;11412;50.802;4.350;2023-05-07T04:47:27;15.30;99.90
22491;DHT22;11412;50.802;4.350;2023-05-07T04:49:53;15.30;99.90
22491;DHT22;11412;50.802;4.350;2023-05-07T04:52:19;15.20;99.90
22491;DHT22;11412;50.802;4.350;2023-05-07T04:54:44;15.20;99.90
22491;DHT22;11412;50.802;4.350;2023-05-07T04:57:10;15.20;99.90
22491;DHT22;11412;50.802;4.350;2023-05-07T04:59:36;15.40;99.90
22491;DHT22;11412;50.802;4.350;2023-05-07T05:02:02;15.40;99.90
22491;DHT22;11412;50.802;4.350;2023-05-07T05:04:30;15.40;99.90
22491;DHT22;11412;50.802;4.350;2023-05-07T05:06:55;15.40;99.90
22491;DHT22;11412;50.802;4.350;2023-05-07T05:09:21;15.50;99.90
22491;DHT22;11412;50.802;4.350;2023-05-07T05:11:47;15.50;99.90
22491;DHT22;11412;50.802;4.350;2023-05-07T05:14:13;15.50;99.90
22491;DHT22;11412;50.802;4.350;2023-05-07T05:16:41;15.50;99.90
22491;DHT22;11412;50.802;4.350;2023-05-07T05:19:06;15.60;99.90
22491;DHT22;11412;50.802;4.350;2023-05-07T05:21:32;15.60;99.90
22491;DHT22;11412;50.802;4.350;2023-05-07T05:23:58;15.70;99.90
22491;DHT22;11412;50.802;4.350;2023-05-07T05:26:24;15.70;99.90
22491;DHT22;11412;50.802;4.350;2023-05-07T05:28:50;15.80;99.90
22491;DHT22;11412;50.802;4.350;2023-05-07T05:31:16;15.80;99.90
22491;DHT22;11412;50.802;4.350;2023-05-07T05:33:42;15.90;99.90
22491;DHT22;11412;50.802;4.350;2023-05-07T05:36:11;15.90;99.90
22491;DHT22;11412;50.802;4.350;2023-05-07T05:38:39;16.00;99.90
22491;DHT22;11412;50.802;4.350;2023-05-07T05:41:05;16.00;99.90
22491;DHT22;11412;50.802;4.350;2023-05-07T05:43:31;16.00;99.90
22491;DHT22;11412;50.802;4.350;2023-05-07T05:45:57;16.10;99.90
22491;DHT22;11412;50.802;4.350;2023-05-07T05:48:24;16.10;99.90
22491;DHT22;11412;50.802;4.350;2023-05-07T05:50:49;16.10;99.90
22491;DHT22;11412;50.802;4.350;2023-05-07T05:53:15;16.00;99.90
22491;DHT22;11412;50.802;4.350;2023-05-07T05:55:41;16.10;99.90
22491;DHT22;11412;50.802;4.350;2023-05-07T05:58:08;16.00;99.90
22491;DHT22;11412;50.802;4.350;2023-05-07T06:00:34;16.00;99.90
22491;DHT22;11412;50.802;4.350;2023-05-07T06:03:00;16.00;99.90
22491;DHT22;11412;50.802;4.350;2023-05-07T06:05:25;16.00;99.90
22491;DHT22;11412;50.802;4.350;2023-05-07T06:07:51;16.00;99.90
22491;DHT22;11412;50.802;4.350;2023-05-07T06:10:17;16.00;99.90
22491;DHT22;11412;50.802;4.350;2023-05-07T06:12:43;16.00;99.90
22491;DHT22;11412;50.802;4.350;2023-05-07T06:15:09;16.00;99.90
22491;DHT22;11412;50.802;4.350;2023-05-07T06:17:35;16.00;99.90
22491;DHT22;11412;50.802;4.350;2023-05-07T06:20:00;16.00;99.90
22491;DHT22;11412;50.802;4.350;2023-05-07T06:22:26;16.00;99.90
22491;DHT22;11412;50.802;4.350;2023-05-07T06:24:52;16.00;99.90
22491;DHT22;11412;50.802;4.350;2023-05-07T06:27:18;16.20;99.90
22491;DHT22;11412;50.802;4.350;2023-05-07T06:29:44;16.10;99.90
22491;DHT22;11412;50.802;4.350;2023-05-07T06:32:10;16.10;99.90
22491;DHT22;11412;50.802;4.350;2023-05-07T06:34:37;16.00;99.90
22491;DHT22;11412;50.802;4.350;2023-05-07T06:37:03;15.90;99.90
22491;DHT22;11412;50.802;4.350;2023-05-07T06:39:28;16.00;99.90
22491;DHT22;11412;50.802;4.350;2023-05-07T06:41:54;16.10;99.90
22491;DHT22;11412;50.802;4.350;2023-05-07T06:44:20;15.90;99.90
22491;DHT22;11412;50.802;4.350;2023-05-07T06:46:45;16.00;99.90
22491;DHT22;11412;50.802;4.350;2023-05-07T06:49:15;16.00;99.90
22491;DHT22;11412;50.802;4.350;2023-05-07T06:51:41;15.90;99.90
22491;DHT22;11412;50.802;4.350;2023-05-07T06:54:06;15.80;99.90
22491;DHT22;11412;50.802;4.350;2023-05-07T06:56:33;15.80;99.90
22491;DHT22;11412;50.802;4.350;2023-05-07T06:59:02;15.80;99.90
22491;DHT22;11412;50.802;4.350;2023-05-07T07:01:28;15.70;99.90
22491;DHT22;11412;50.802;4.350;2023-05-07T07:03:54;15.70;99.90
22491;DHT22;11412;50.802;4.350;2023-05-07T07:06:20;15.60;99.90
22491;DHT22;11412;50.802;4.350;2023-05-07T07:08:45;15.60;99.90
22491;DHT22;11412;50.802;4.350;2023-05-07T07:11:11;15.70;99.90
22491;DHT22;11412;50.802;4.350;2023-05-07T07:13:37;15.60;99.90
22491;DHT22;11412;50.802;4.350;2023-05-07T07:16:03;15.70;99.90
22491;DHT22;11412;50.802;4.350;2023-05-07T07:18:29;15.60;99.90
22491;DHT22;11412;50.802;4.350;2023-05-07T07:20:54;15.70;99.90
22491;DHT22;11412;50.802;4.350;2023-05-07T07:23:20;15.70;99.90
22491;DHT22;11412;50.802;4.350;2023-05-07T07:25:46;15.70;99.90
22491;DHT22;11412;50.802;4.350;2023-05-07T07:28:12;15.70;99.90
22491;DHT22;11412;50.802;4.350;2023-05-07T07:30:38;15.70;99.90
22491;DHT22;11412;50.802;4.350;2023-05-07T07:33:04;15.70;99.90
22491;DHT22;11412;50.802;4.350;2023-05-07T07:35:34;15.70;99.90
22491;DHT22;11412;50.802;4.350;2023-05-07T07:37:59;15.60;99.90
22491;DHT22;11412;50.802;4.350;2023-05-07T07:40:25;15.80;99.90
22491;DHT22;11412;50.802;4.350;2023-05-07T07:42:52;15.70;99.90
22491;DHT22;11412;50.802;4.350;2023-05-07T07:45:18;15.60;99.90
22491;DHT22;11412;50.802;4.350;2023-05-07T07:47:43;15.60;99.90
22491;DHT22;11412;50.802;4.350;2023-05-07T07:50:09;15.80;99.90
22491;DHT22;11412;50.802;4.350;2023-05-07T07:52:35;15.80;99.90
22491;DHT22;11412;50.802;4.350;2023-05-07T07:55:01;15.80;99.90
22491;DHT22;11412;50.802;4.350;2023-05-07T07:57:27;15.80;99.90
22491;DHT22;11412;50.802;4.350;2023-05-07T07:59:53;15.90;99.90
22491;DHT22;11412;50.802;4.350;2023-05-07T08:02:18;16.00;99.90
22491;DHT22;11412;50.802;4.350;2023-05-07T08:04:44;16.00;99.90
22491;DHT22;11412;50.802;4.350;2023-05-07T08:07:10;15.90;99.90
22491;DHT22;11412;50.802;4.350;2023-05-07T08:09:40;15.90;99.90
22491;DHT22;11412;50.802;4.350;2023-05-07T08:12:06;15.90;99.90
22491;DHT22;11412;50.802;4.350;2023-05-07T08:14:32;15.90;99.90
22491;DHT22;11412;50.802;4.350;2023-05-07T08:16:58;16.10;99.90
22491;DHT22;11412;50.802;4.350;2023-05-07T08:19:24;16.20;99.90
22491;DHT22;11412;50.802;4.350;2023-05-07T08:21:49;16.20;99.90
22491;DHT22;11412;50.802;4.350;2023-05-07T08:24:16;16.10;99.90
22491;DHT22;11412;50.802;4.350;2023-05-07T08:26:43;16.00;99.90
22491;DHT22;11412;50.802;4.350;2023-05-07T08:29:09;16.00;99.90
22491;DHT22;11412;50.802;4.350;2023-05-07T08:31:35;15.90;99.90
22491;DHT22;11412;50.802;4.350;2023-05-07T08:34:01;16.00;99.90
22491;DHT22;11412;50.802;4.350;2023-05-07T08:36:26;16.10;99.90
22491;DHT22;11412;50.802;4.350;2023-05-07T08:38:53;16.20;99.90
22491;DHT22;11412;50.802;4.350;2023-05-07T08:41:19;16.20;99.90
22491;DHT22;11412;50.802;4.350;2023-05-07T08:43:48;16.10;99.90
22491;DHT22;11412;50.802;4.350;2023-05-07T08:46:20;16.20;99.90
22491;DHT22;11412;50.802;4.350;2023-05-07T08:48:48;16.10;99.90
22491;DHT22;11412;50.802;4.350;2023-05-07T08:51:20;16.10;99.90
22491;DHT22;11412;50.802;4.350;2023-05-07T08:53:47;16.10;99.90
22491;DHT22;11412;50.802;4.350;2023-05-07T08:56:14;16.20;99.90
22491;DHT22;11412;50.802;4.350;2023-05-07T08:58:44;16.20;99.90
22491;DHT22;11412;50.802;4.350;2023-05-07T09:01:13;16.30;99.90
22491;DHT22;11412;50.802;4.350;2023-05-07T09:03:39;16.10;99.90
22491;DHT22;11412;50.802;4.350;2023-05-07T09:06:05;16.20;99.90
22491;DHT22;11412;50.802;4.350;2023-05-07T09:08:33;16.20;99.90
22491;DHT22;11412;50.802;4.350;2023-05-07T09:10:59;16.20;99.90
22491;DHT22;11412;50.802;4.350;2023-05-07T09:13:27;16.20;99.90
22491;DHT22;11412;50.802;4.350;2023-05-07T09:15:52;16.30;99.90
22491;DHT22;11412;50.802;4.350;2023-05-07T09:18:18;16.40;99.90
22491;DHT22;11412;50.802;4.350;2023-05-07T09:20:44;16.60;99.90
22491;DHT22;11412;50.802;4.350;2023-05-07T09:23:10;16.60;99.90
22491;DHT22;11412;50.802;4.350;2023-05-07T09:25:37;16.60;99.90
22491;DHT22;11412;50.802;4.350;2023-05-07T09:28:04;16.60;99.90
22491;DHT22;11412;50.802;4.350;2023-05-07T09:30:32;16.80;99.90
22491;DHT22;11412;50.802;4.350;2023-05-07T09:32:59;16.90;99.90
22491;DHT22;11412;50.802;4.350;2023-05-07T09:35:26;17.00;99.90
22491;DHT22;11412;50.802;4.350;2023-05-07T09:38:00;17.00;99.90
22491;DHT22;11412;50.802;4.350;2023-05-07T09:40:28;17.10;99.90
22491;DHT22;11412;50.802;4.350;2023-05-07T09:42:54;17.20;99.90
22491;DHT22;11412;50.802;4.350;2023-05-07T09:45:27;17.20;99.90
22491;DHT22;11412;50.802;4.350;2023-05-07T09:47:57;17.10;99.90
22491;DHT22;11412;50.802;4.350;2023-05-07T09:50:29;17.00;99.90
22491;DHT22;11412;50.802;4.350;2023-05-07T09:52:56;16.90;99.90
22491;DHT22;11412;50.802;4.350;2023-05-07T09:55:22;17.00;99.90
22491;DHT22;11412;50.802;4.350;2023-05-07T09:57:51;17.00;99.90
22491;DHT22;11412;50.802;4.350;2023-05-07T10:00:21;17.00;99.90
22491;DHT22;11412;50.802;4.350;2023-05-07T10:02:49;16.90;99.90
22491;DHT22;11412;50.802;4.350;2023-05-07T10:05:18;17.20;99.90
22491;DHT22;11412;50.802;4.350;2023-05-07T10:07:44;17.10;99.90
22491;DHT22;11412;50.802;4.350;2023-05-07T10:10:10;17.40;99.90
22491;DHT22;11412;50.802;4.350;2023-05-07T10:12:36;17.20;99.90
22491;DHT22;11412;50.802;4.350;2023-05-07T10:15:11;17.10;99.90
22491;DHT22;11412;50.802;4.350;2023-05-07T10:17:40;16.90;99.90
22491;DHT22;11412;50.802;4.350;2023-05-07T10:20:06;17.10;99.90
22491;DHT22;11412;50.802;4.350;2023-05-07T10:22:44;17.20;99.90
22491;DHT22;11412;50.802;4.350;2023-05-07T10:25:21;17.20;99.90
22491;DHT22;11412;50.802;4.350;2023-05-07T10:27:47;17.30;99.90
22491;DHT22;11412;50.802;4.350;2023-05-07T10:33:03;17.50;99.90
22491;DHT22;11412;50.802;4.350;2023-05-07T10:35:37;17.20;99.90
22491;DHT22;11412;50.802;4.350;2023-05-07T10:38:05;17.10;99.90
22491;DHT22;11412;50.802;4.350;2023-05-07T10:40:31;17.10;99.90
22491;DHT22;11412;50.802;4.350;2023-05-07T10:43:01;17.30;99.90
22491;DHT22;11412;50.802;4.350;2023-05-07T10:45:29;17.30;99.90
22491;DHT22;11412;50.802;4.350;2023-05-07T10:48:14;17.10;99.90
22491;DHT22;11412;50.802;4.350;2023-05-07T10:50:42;17.00;99.90
22491;DHT22;11412;50.802;4.350;2023-05-07T10:55:50;17.20;99.90
22491;DHT22;11412;50.802;4.350;2023-05-07T10:58:27;17.40;99.90
22491;DHT22;11412;50.802;4.350;2023-05-07T11:01:00;17.30;99.90
22491;DHT22;11412;50.802;4.350;2023-05-07T11:03:27;17.40;99.90
22491;DHT22;11412;50.802;4.350;2023-05-07T11:06:14;17.30;99.90
22491;DHT22;11412;50.802;4.350;2023-05-07T11:11:18;17.30;99.90
22491;DHT22;11412;50.802;4.350;2023-05-07T11:13:48;17.40;99.90
22491;DHT22;11412;50.802;4.350;2023-05-07T11:16:19;17.40;99.90
22491;DHT22;11412;50.802;4.350;2023-05-07T11:18:50;17.40;99.90
22491;DHT22;11412;50.802;4.350;2023-05-07T11:24:02;17.60;99.90
22491;DHT22;11412;50.802;4.350;2023-05-07T11:26:45;17.50;99.90
22491;DHT22;11412;50.802;4.350;2023-05-07T11:29:18;17.40;99.90
22491;DHT22;11412;50.802;4.350;2023-05-07T11:31:51;17.60;99.90
22491;DHT22;11412;50.802;4.350;2023-05-07T11:34:24;17.50;99.90
22491;DHT22;11412;50.802;4.350;2023-05-07T11:36:50;17.50;99.90
22491;DHT22;11412;50.802;4.350;2023-05-07T11:39:24;17.50;99.90
22491;DHT22;11412;50.802;4.350;2023-05-07T11:41:50;17.70;99.90
22491;DHT22;11412;50.802;4.350;2023-05-07T11:44:16;17.90;99.90
22491;DHT22;11412;50.802;4.350;2023-05-07T11:46:44;17.60;99.90
22491;DHT22;11412;50.802;4.350;2023-05-07T11:49:10;17.80;99.90
22491;DHT22;11412;50.802;4.350;2023-05-07T11:51:36;17.80;99.90
22491;DHT22;11412;50.802;4.350;2023-05-07T11:54:04;17.80;99.90
22491;DHT22;11412;50.802;4.350;2023-05-07T11:56:34;17.90;99.90
22491;DHT22;11412;50.802;4.350;2023-05-07T11:59:02;17.70;99.90
22491;DHT22;11412;50.802;4.350;2023-05-07T12:01:28;17.90;99.90
22491;DHT22;11412;50.802;4.350;2023-05-07T12:03:54;18.30;99.90
22491;DHT22;11412;50.802;4.350;2023-05-07T12:06:20;18.50;99.90
22491;DHT22;11412;50.802;4.350;2023-05-07T12:08:46;18.50;99.90
22491;DHT22;11412;50.802;4.350;2023-05-07T12:11:16;18.30;99.90
22491;DHT22;11412;50.802;4.350;2023-05-07T12:13:46;18.50;99.90
22491;DHT22;11412;50.802;4.350;2023-05-07T12:16:12;18.80;99.90
22491;DHT22;11412;50.802;4.350;2023-05-07T12:18:39;18.70;99.90
22491;DHT22;11412;50.802;4.350;2023-05-07T12:21:06;18.70;99.90
22491;DHT22;11412;50.802;4.350;2023-05-07T12:23:33;18.60;99.90
22491;DHT22;11412;50.802;4.350;2023-05-07T12:25:59;18.50;99.90
22491;DHT22;11412;50.802;4.350;2023-05-07T12:28:25;18.50;99.90
22491;DHT22;11412;50.802;4.350;2023-05-07T12:30:51;18.60;99.90
22491;DHT22;11412;50.802;4.350;2023-05-07T12:33:19;18.80;99.90
22491;DHT22;11412;50.802;4.350;2023-05-07T12:35:47;18.80;99.90
22491;DHT22;11412;50.802;4.350;2023-05-07T12:38:14;18.90;99.90
22491;DHT22;11412;50.802;4.350;2023-05-07T12:40:47;18.80;99.90
22491;DHT22;11412;50.802;4.350;2023-05-07T12:43:28;18.60;99.90
22491;DHT22;11412;50.802;4.350;2023-05-07T12:46:04;18.50;99.90
22491;DHT22;11412;50.802;4.350;2023-05-07T12:48:30;18.30;99.90
22491;DHT22;11412;50.802;4.350;2023-05-07T12:50:58;18.40;99.90
22491;DHT22;11412;50.802;4.350;2023-05-07T12:53:26;18.20;99.90
22491;DHT22;11412;50.802;4.350;2023-05-07T12:55:55;18.10;99.90
22491;DHT22;11412;50.802;4.350;2023-05-07T12:58:27;18.30;99.90
22491;DHT22;11412;50.802;4.350;2023-05-07T13:00:53;18.50;99.90
22491;DHT22;11412;50.802;4.350;2023-05-07T13:03:24;18.50;99.90
22491;DHT22;11412;50.802;4.350;2023-05-07T13:05:51;18.70;99.90
22491;DHT22;11412;50.802;4.350;2023-05-07T13:08:29;18.60;99.90
22491;DHT22;11412;50.802;4.350;2023-05-07T13:10:55;18.50;99.90
22491;DHT22;11412;50.802;4.350;2023-05-07T13:13:21;18.50;99.90
22491;DHT22;11412;50.802;4.350;2023-05-07T13:15:47;18.50;99.90
22491;DHT22;11412;50.802;4.350;2023-05-07T13:18:13;18.50;99.90
22491;DHT22;11412;50.802;4.350;2023-05-07T13:20:39;18.50;99.90
22491;DHT22;11412;50.802;4.350;2023-05-07T13:23:05;18.70;99.90
22491;DHT22;11412;50.802;4.350;2023-05-07T13:25:30;18.70;99.90
22491;DHT22;11412;50.802;4.350;2023-05-07T13:27:59;18.70;99.90
22491;DHT22;11412;50.802;4.350;2023-05-07T13:30:25;18.60;99.90
22491;DHT22;11412;50.802;4.350;2023-05-07T13:32:53;18.50;99.90
22491;DHT22;11412;50.802;4.350;2023-05-07T13:35:19;18.50;99.90
22491;DHT22;11412;50.802;4.350;2023-05-07T13:37:45;18.50;99.90
22491;DHT22;11412;50.802;4.350;2023-05-07T13:40:11;18.50;99.90
22491;DHT22;11412;50.802;4.350;2023-05-07T13:42:36;18.40;99.90
22491;DHT22;11412;50.802;4.350;2023-05-07T13:45:02;18.40;99.90
22491;DHT22;11412;50.802;4.350;2023-05-07T13:47:30;18.30;99.90
22491;DHT22;11412;50.802;4.350;2023-05-07T13:49:56;18.50;99.90
22491;DHT22;11412;50.802;4.350;2023-05-07T13:52:22;18.50;99.90
22491;DHT22;11412;50.802;4.350;2023-05-07T13:54:48;18.40;99.90
22491;DHT22;11412;50.802;4.350;2023-05-07T13:57:14;18.20;99.90
22491;DHT22;11412;50.802;4.350;2023-05-07T13:59:40;18.20;99.90
22491;DHT22;11412;50.802;4.350;2023-05-07T14:02:06;18.30;99.90
22491;DHT22;11412;50.802;4.350;2023-05-07T14:04:32;18.30;99.90
22491;DHT22;11412;50.802;4.350;2023-05-07T14:06:58;18.30;99.90
22491;DHT22;11412;50.802;4.350;2023-05-07T14:09:23;18.40;99.90
22491;DHT22;11412;50.802;4.350;2023-05-07T14:11:51;18.50;99.90
22491;DHT22;11412;50.802;4.350;2023-05-07T14:14:18;18.50;99.90
22491;DHT22;11412;50.802;4.350;2023-05-07T14:16:44;18.30;99.90
22491;DHT22;11412;50.802;4.350;2023-05-07T14:19:11;18.20;99.90
22491;DHT22;11412;50.802;4.350;2023-05-07T14:21:37;18.20;99.90
22491;DHT22;11412;50.802;4.350;2023-05-07T14:24:03;18.10;99.90
22491;DHT22;11412;50.802;4.350;2023-05-07T14:26:29;18.10;99.90
22491;DHT22;11412;50.802;4.350;2023-05-07T14:28:55;18.10;99.90
22491;DHT22;11412;50.802;4.350;2023-05-07T14:31:23;18.10;99.90
22491;DHT22;11412;50.802;4.350;2023-05-07T14:33:49;18.10;99.90
22491;DHT22;11412;50.802;4.350;2023-05-07T14:36:16;18.10;99.90
22491;DHT22;11412;50.802;4.350;2023-05-07T14:38:43;18.20;99.90
22491;DHT22;11412;50.802;4.350;2023-05-07T14:41:09;18.10;99.90
22491;DHT22;11412;50.802;4.350;2023-05-07T14:43:34;18.10;99.90
22491;DHT22;11412;50.802;4.350;2023-05-07T14:46:00;18.10;99.90
22491;DHT22;11412;50.802;4.350;2023-05-07T14:48:25;18.00;99.90
22491;DHT22;11412;50.802;4.350;2023-05-07T14:50:51;18.30;99.90
22491;DHT22;11412;50.802;4.350;2023-05-07T14:53:17;18.40;99.90
22491;DHT22;11412;50.802;4.350;2023-05-07T14:55:42;18.40;99.90
22491;DHT22;11412;50.802;4.350;2023-05-07T14:58:08;18.50;99.90
22491;DHT22;11412;50.802;4.350;2023-05-07T15:00:35;18.50;99.90
22491;DHT22;11412;50.802;4.350;2023-05-07T15:03:05;18.30;99.90
22491;DHT22;11412;50.802;4.350;2023-05-07T15:05:32;18.30;99.90
22491;DHT22;11412;50.802;4.350;2023-05-07T15:07:58;18.30;99.90
22491;DHT22;11412;50.802;4.350;2023-05-07T15:10:24;18.30;99.90
22491;DHT22;11412;50.802;4.350;2023-05-07T15:12:49;18.40;99.90
22491;DHT22;11412;50.802;4.350;2023-05-07T15:15:15;18.50;99.90
22491;DHT22;11412;50.802;4.350;2023-05-07T15:17:41;18.50;99.90
22491;DHT22;11412;50.802;4.350;2023-05-07T15:20:07;18.40;99.90
22491;DHT22;11412;50.802;4.350;2023-05-07T15:22:33;18.40;99.90
22491;DHT22;11412;50.802;4.350;2023-05-07T15:24:59;18.80;99.90
22491;DHT22;11412;50.802;4.350;2023-05-07T15:27:25;18.90;99.90
22491;DHT22;11412;50.802;4.350;2023-05-07T15:29:51;18.70;99.90
22491;DHT22;11412;50.802;4.350;2023-05-07T15:32:17;18.50;99.90
22491;DHT22;11412;50.802;4.350;2023-05-07T15:34:43;18.40;99.90
22491;DHT22;11412;50.802;4.350;2023-05-07T15:37:08;18.30;99.90
22491;DHT22;11412;50.802;4.350;2023-05-07T15:39:35;18.50;99.90
22491;DHT22;11412;50.802;4.350;2023-05-07T15:42:00;18.50;99.90